createdAt,value
2018-04-24T00:01:22.479Z,97563.98
2018-04-24T00:03:50.068Z,97566.53
2018-04-24T00:06:17.637Z,97563.70
2018-04-24T00:08:45.173Z,97566.42
2018-04-24T00:11:12.692Z,97565.94
2018-04-24T00:13:40.255Z,97569.95
2018-04-24T00:16:07.777Z,97563.98
2018-04-24T00:18:35.301Z,97566.22
2018-04-24T00:21:03.145Z,97559.95
2018-04-24T00:23:30.670Z,97559.38
2018-04-24T00:25:58.195Z,97563.89
2018-04-24T00:28:25.844Z,97559.08
2018-04-24T00:30:53.372Z,97553.73
2018-04-24T00:33:21.095Z,97558.25
2018-04-24T00:35:48.655Z,97560.34
2018-04-24T00:38:16.188Z,97563.73
2018-04-24T00:40:43.712Z,97564.98
2018-04-24T00:43:11.386Z,97557.83
2018-04-24T00:45:38.951Z,97559.82
2018-04-24T00:48:06.452Z,97558.40
2018-04-24T00:50:34.031Z,97565.85
2018-04-24T00:53:01.549Z,97563.13
2018-04-24T00:55:29.082Z,97566.76
2018-04-24T00:57:56.732Z,97568.06
2018-04-24T01:00:24.260Z,97564.06
2018-04-24T01:02:52.147Z,97564.52
2018-04-24T01:05:19.696Z,97567.39
2018-04-24T01:07:47.230Z,97565.58
2018-04-24T01:10:15.576Z,97570.81
2018-04-24T01:12:43.212Z,97564.67
2018-04-24T01:15:10.737Z,97561.97
2018-04-24T01:17:38.264Z,97565.06
2018-04-24T01:20:05.861Z,97561.31
2018-04-24T01:22:34.191Z,97570.93
2018-04-24T01:25:01.725Z,97571.30
2018-04-24T01:27:29.539Z,97572.22
2018-04-24T01:29:57.887Z,97574.11
2018-04-24T01:32:25.436Z,97568.77
2018-04-24T01:34:53.227Z,97572.38
2018-04-24T01:37:21.607Z,97582.51
2018-04-24T01:39:49.616Z,97572.00
2018-04-24T01:42:17.198Z,97581.45
2018-04-24T01:44:44.735Z,97577.64
2018-04-24T01:47:12.268Z,97579.53
2018-04-24T01:49:39.840Z,97584.44
2018-04-24T01:52:07.372Z,97583.77
2018-04-24T01:54:34.900Z,97587.79
2018-04-24T01:57:02.553Z,97589.66
2018-04-24T01:59:30.083Z,97587.84
2018-04-24T02:01:57.603Z,97586.22
2018-04-24T02:04:25.436Z,97583.84
2018-04-24T02:06:52.960Z,97587.09
2018-04-24T02:09:20.493Z,97585.27
2018-04-24T02:11:48.069Z,97575.64
2018-04-24T02:14:15.626Z,97578.16
2018-04-24T02:16:43.154Z,97580.91
2018-04-24T02:19:11.048Z,97580.25
2018-04-24T02:21:38.606Z,97577.55
2018-04-24T02:24:06.292Z,97583.02
2018-04-24T02:26:33.989Z,97587.48
2018-04-24T02:29:01.519Z,97589.49
2018-04-24T02:31:29.037Z,97596.40
2018-04-24T02:33:56.769Z,97594.50
2018-04-24T02:36:24.315Z,97591.63
2018-04-24T02:38:51.846Z,97592.90
2018-04-24T02:41:19.664Z,97591.77
2018-04-24T02:43:47.192Z,97597.27
2018-04-24T02:46:14.725Z,97592.58
2018-04-24T02:48:42.380Z,97591.50
2018-04-24T02:51:09.908Z,97590.81
2018-04-24T02:53:37.432Z,97586.91
2018-04-24T02:56:05.077Z,97586.19
2018-04-24T02:58:32.596Z,97581.82
2018-04-24T03:01:00.126Z,97578.91
2018-04-24T03:03:27.769Z,97576.83
2018-04-24T03:05:55.291Z,97570.03
2018-04-24T03:08:22.841Z,97565.66
2018-04-24T03:10:50.696Z,97568.78
2018-04-24T03:13:18.483Z,97572.52
2018-04-24T03:15:46.005Z,97580.13
2018-04-24T03:18:13.662Z,97582.27
2018-04-24T03:20:41.188Z,97581.91
2018-04-24T03:23:08.748Z,97579.93
2018-04-24T03:25:36.351Z,97573.09
2018-04-24T03:28:03.873Z,97571.38
2018-04-24T03:30:31.399Z,97564.30
2018-04-24T03:32:59.104Z,97567.72
2018-04-24T03:35:26.632Z,97567.80
2018-04-24T03:37:54.387Z,97565.29
2018-04-24T03:40:22.094Z,97568.14
2018-04-24T03:42:49.612Z,97570.64
2018-04-24T03:45:17.131Z,97573.94
2018-04-24T03:47:44.779Z,97570.98
2018-04-24T03:50:12.308Z,97575.88
2018-04-24T03:52:39.832Z,97572.31
2018-04-24T03:55:07.396Z,97581.10
2018-04-24T03:57:34.916Z,97584.77
2018-04-24T04:00:02.478Z,97586.38
2018-04-24T04:02:30.189Z,97582.02
2018-04-24T04:04:57.716Z,97584.30
2018-04-24T04:07:25.241Z,97584.16
2018-04-24T04:09:53.097Z,97579.70
2018-04-24T04:12:20.628Z,97573.59
2018-04-24T04:14:48.150Z,97569.91
2018-04-24T04:17:27.453Z,97571.59
2018-04-24T04:20:06.537Z,97570.86
2018-04-24T04:22:46.800Z,97574.61
2018-04-24T04:25:14.316Z,97574.41
2018-04-24T04:27:41.845Z,97581.12
2018-04-24T04:30:09.489Z,97571.73
2018-04-24T04:32:37.012Z,97578.22
2018-04-24T04:35:05.978Z,97572.33
2018-04-24T04:37:33.775Z,97584.02
2018-04-24T04:40:01.299Z,97588.80
2018-04-24T04:42:29.732Z,97586.56
2018-04-24T04:44:57.371Z,97586.14
2018-04-24T04:47:24.902Z,97589.86
2018-04-24T04:49:52.426Z,97586.39
2018-04-24T04:52:20.254Z,97589.56
2018-04-24T04:54:47.776Z,97589.50
2018-04-24T04:57:15.295Z,97591.58
2018-04-24T04:59:42.873Z,97590.49
2018-04-24T05:02:10.400Z,97602.22
2018-04-24T05:04:37.922Z,97602.70
2018-04-24T05:07:05.581Z,97599.75
2018-04-24T05:09:33.112Z,97605.05
2018-04-24T05:12:00.701Z,97604.55
2018-04-24T05:14:28.611Z,97604.63
2018-04-24T05:16:56.164Z,97600.95
2018-04-24T05:19:23.704Z,97606.03
2018-04-24T05:21:51.748Z,97602.75
2018-04-24T05:24:19.272Z,97608.42
2018-04-24T05:26:46.787Z,97607.91
2018-04-24T05:29:14.359Z,97607.75
2018-04-24T05:31:42.238Z,97606.89
2018-04-24T05:34:09.759Z,97604.94
2018-04-24T05:36:37.345Z,97608.47
2018-04-24T05:39:04.898Z,97614.21
2018-04-24T05:41:32.420Z,97612.21
2018-04-24T05:43:59.988Z,97612.11
2018-04-24T05:46:27.517Z,97609.09
2018-04-24T05:48:55.038Z,97613.48
2018-04-24T05:51:22.909Z,97611.12
2018-04-24T05:53:50.428Z,97613.87
2018-04-24T05:56:17.957Z,97621.17
2018-04-24T05:58:45.659Z,97617.41
2018-04-24T06:01:13.569Z,97607.64
2018-04-24T06:03:41.088Z,97613.49
2018-04-24T06:06:08.810Z,97605.48
2018-04-24T06:08:36.413Z,97604.81
2018-04-24T06:11:03.864Z,97611.12
2018-04-24T06:13:31.519Z,97616.59
2018-04-24T06:15:59.047Z,97612.05
2018-04-24T06:18:26.567Z,97617.94
2018-04-24T06:20:54.226Z,97616.44
2018-04-24T06:23:21.744Z,97613.64
2018-04-24T06:25:49.274Z,97618.43
2018-04-24T06:28:16.837Z,97614.59
2018-04-24T06:30:44.347Z,97613.34
2018-04-24T06:33:11.867Z,97611.73
2018-04-24T06:35:40.277Z,97613.02
2018-04-24T06:38:07.794Z,97610.94
2018-04-24T06:40:35.300Z,97614.81
2018-04-24T06:43:02.841Z,97607.86
2018-04-24T06:45:30.357Z,97606.27
2018-04-24T06:47:57.876Z,97604.11
2018-04-24T06:50:25.509Z,97604.48
2018-04-24T06:52:53.025Z,97599.85
2018-04-24T06:55:20.549Z,97599.15
2018-04-24T06:57:48.508Z,97599.83
2018-04-24T07:00:16.015Z,97597.48
2018-04-24T07:02:43.530Z,97596.02
2018-04-24T07:05:11.173Z,97599.44
2018-04-24T07:07:38.687Z,97599.77
2018-04-24T07:10:06.206Z,97602.33
2018-04-24T07:12:34.055Z,97598.31
2018-04-24T07:15:01.580Z,97598.83
2018-04-24T07:17:29.440Z,97600.26
2018-04-24T07:19:57.080Z,97600.92
2018-04-24T07:22:24.605Z,97596.42
2018-04-24T07:24:52.119Z,97593.23
2018-04-24T07:27:19.895Z,97596.05
2018-04-24T07:29:47.766Z,97596.02
2018-04-24T07:32:15.280Z,97600.91
2018-04-24T07:34:42.929Z,97603.75
2018-04-24T07:37:10.437Z,97602.89
2018-04-24T07:39:37.952Z,97602.94
2018-04-24T07:42:05.620Z,97597.27
2018-04-24T07:44:33.137Z,97593.84
2018-04-24T07:47:00.661Z,97601.57
2018-04-24T07:49:28.221Z,97604.00
2018-04-24T07:51:55.736Z,97597.49
2018-04-24T07:54:23.273Z,97592.77
2018-04-24T07:56:51.042Z,97593.17
2018-04-24T07:59:18.641Z,97584.16
2018-04-24T08:01:46.104Z,97583.78
2018-04-24T08:04:13.743Z,97598.26
2018-04-24T08:06:41.260Z,97598.33
2018-04-24T08:09:08.831Z,97602.63
2018-04-24T08:11:36.398Z,97595.86
2018-04-24T08:14:03.911Z,97590.84
2018-04-24T08:16:31.536Z,97595.75
2018-04-24T08:18:59.040Z,97590.20
2018-04-24T08:21:33.273Z,97592.08
2018-04-24T08:24:00.832Z,97596.91
2018-04-24T08:26:28.348Z,97590.66
2018-04-24T08:28:55.864Z,97594.73
2018-04-24T08:31:23.408Z,97594.88
2018-04-24T08:33:50.918Z,97595.05
2018-04-24T08:36:18.440Z,97595.09
2018-04-24T08:38:46.139Z,97595.27
2018-04-24T08:41:13.667Z,97593.56
2018-04-24T08:43:41.193Z,97593.36
2018-04-24T08:46:08.745Z,97592.20
2018-04-24T08:48:36.261Z,97589.17
2018-04-24T08:51:03.785Z,97590.07
2018-04-24T08:53:31.433Z,97591.50
2018-04-24T08:55:58.948Z,97587.69
2018-04-24T08:58:26.473Z,97589.98
2018-04-24T09:00:54.023Z,97589.98
2018-04-24T09:03:21.540Z,97591.56
2018-04-24T09:05:49.061Z,97582.50
2018-04-24T09:08:17.700Z,97589.00
2018-04-24T09:10:45.219Z,97578.67
2018-04-24T09:13:13.551Z,97584.81
2018-04-24T09:15:41.182Z,97584.22
2018-04-24T09:18:08.700Z,97583.70
2018-04-24T09:20:36.216Z,97584.98
2018-04-24T09:23:03.852Z,97588.09
2018-04-24T09:25:31.366Z,97586.28
2018-04-24T09:27:58.912Z,97579.31
2018-04-24T09:30:26.636Z,97578.89
2018-04-24T09:32:54.215Z,97574.30
2018-04-24T09:35:29.594Z,97575.78
2018-04-24T09:37:57.109Z,97578.89
2018-04-24T09:40:24.628Z,97578.55
2018-04-24T09:42:52.485Z,97574.93
2018-04-24T09:45:19.999Z,97578.59
2018-04-24T09:47:47.505Z,97577.83
2018-04-24T09:50:15.367Z,97576.95
2018-04-24T09:52:43.005Z,97572.22
2018-04-24T09:55:13.778Z,97566.36
2018-04-24T09:57:41.487Z,97563.48
2018-04-24T10:00:09.812Z,97562.70
2018-04-24T10:02:37.533Z,97557.41
2018-04-24T10:05:05.097Z,97565.86
2018-04-24T10:07:32.616Z,97556.08
2018-04-24T10:10:00.574Z,97556.34
2018-04-24T10:12:28.249Z,97557.83
2018-04-24T10:14:55.763Z,97552.55
2018-04-24T10:17:23.267Z,97541.91
2018-04-24T10:19:50.834Z,97548.91
2018-04-24T10:22:18.826Z,97547.58
2018-04-24T10:24:46.351Z,97542.14
2018-04-24T10:27:14.013Z,97542.84
2018-04-24T10:29:41.599Z,97541.44
2018-04-24T10:32:09.112Z,97541.21
2018-04-24T10:34:36.950Z,97533.80
2018-04-24T10:37:04.460Z,97532.75
2018-04-24T10:39:31.989Z,97527.11
2018-04-24T10:41:59.632Z,97525.11
2018-04-24T10:44:27.149Z,97533.66
2018-04-24T10:46:54.671Z,97526.77
2018-04-24T10:49:22.225Z,97526.78
2018-04-24T10:51:49.948Z,97522.26
2018-04-24T10:54:17.422Z,97522.40
2018-04-24T10:56:45.163Z,97526.05
2018-04-24T10:59:12.671Z,97519.70
2018-04-24T11:01:40.184Z,97515.06
2018-04-24T11:04:07.917Z,97523.98
2018-04-24T11:06:35.510Z,97519.78
2018-04-24T11:09:03.030Z,97515.60
2018-04-24T11:11:30.984Z,97515.05
2018-04-24T11:13:58.501Z,97507.30
2018-04-24T11:16:26.134Z,97510.83
2018-04-24T11:18:53.852Z,97514.12
2018-04-24T11:21:21.454Z,97506.53
2018-04-24T11:23:48.952Z,97515.14
2018-04-24T11:26:16.681Z,97511.24
2018-04-24T11:28:44.397Z,97502.66
2018-04-24T11:31:11.969Z,97500.70
2018-04-24T11:33:39.616Z,97498.30
2018-04-24T11:36:07.132Z,97498.19
2018-04-24T11:38:34.645Z,97503.75
2018-04-24T11:41:02.233Z,97496.48
2018-04-24T11:43:29.773Z,97501.66
2018-04-24T11:45:57.296Z,97493.98
2018-04-24T11:48:24.866Z,97489.44
2018-04-24T11:50:52.385Z,97486.94
2018-04-24T11:53:19.892Z,97486.80
2018-04-24T11:55:47.444Z,97484.08
2018-04-24T11:58:14.980Z,97492.17
2018-04-24T12:00:42.487Z,97483.00
2018-04-24T12:03:10.135Z,97479.75
2018-04-24T12:05:37.693Z,97477.91
2018-04-24T12:08:05.263Z,97471.77
2018-04-24T12:10:32.812Z,97478.87
2018-04-24T12:13:00.334Z,97469.59
2018-04-24T12:15:28.030Z,97469.67
2018-04-24T12:17:55.608Z,97470.25
2018-04-24T12:20:23.210Z,97470.65
2018-04-24T12:22:50.781Z,97469.33
2018-04-24T12:25:18.348Z,97470.28
2018-04-24T12:27:46.156Z,97475.46
2018-04-24T12:30:13.817Z,97472.80
2018-04-24T12:32:41.482Z,97472.74
2018-04-24T12:35:09.048Z,97466.36
2018-04-24T12:37:36.600Z,97460.26
2018-04-24T12:40:04.408Z,97465.16
2018-04-24T12:42:32.038Z,97462.08
2018-04-24T12:44:59.692Z,97463.30
2018-04-24T12:47:27.541Z,97457.34
2018-04-24T12:49:55.092Z,97452.60
2018-04-24T12:52:22.750Z,97450.22
2018-04-24T12:54:50.607Z,97447.05
2018-04-24T12:57:18.597Z,97446.72
2018-04-24T12:59:46.184Z,97440.27
2018-04-24T13:02:13.887Z,97434.64
2018-04-24T13:04:41.617Z,97428.48
2018-04-24T13:07:09.212Z,97426.25
2018-04-24T13:09:36.788Z,97429.84
2018-04-24T13:12:04.432Z,97428.09
2018-04-24T13:14:32.060Z,97427.35
2018-04-24T13:16:59.971Z,97419.77
2018-04-24T13:19:27.619Z,97417.34
2018-04-24T13:21:55.196Z,97415.53
2018-04-24T13:24:22.944Z,97415.31
2018-04-24T13:26:50.530Z,97408.98
2018-04-24T13:29:18.187Z,97400.63
2018-04-24T13:31:46.071Z,97396.91
2018-04-24T13:34:14.532Z,97406.69
2018-04-24T13:36:42.211Z,97406.53
2018-04-24T13:39:09.890Z,97400.23
2018-04-24T13:41:37.609Z,97387.63
2018-04-24T13:44:05.327Z,97389.13
2018-04-24T13:46:33.293Z,97390.42
2018-04-24T13:49:01.061Z,97384.20
2018-04-24T13:51:28.856Z,97382.83
2018-04-24T13:53:56.668Z,97385.94
2018-04-24T13:56:24.387Z,97385.14
2018-04-24T13:58:52.363Z,97378.34
2018-04-24T14:01:20.175Z,97373.58
2018-04-24T14:03:47.845Z,97374.13
2018-04-24T14:06:15.585Z,97375.75
2018-04-24T14:08:43.445Z,97366.55
2018-04-24T14:11:11.027Z,97366.19
2018-04-24T14:13:38.719Z,97364.41
2018-04-24T14:16:06.576Z,97358.12
2018-04-24T14:18:34.409Z,97362.20
2018-04-24T14:21:02.246Z,97354.81
2018-04-24T14:23:30.332Z,97350.74
2018-04-24T14:25:58.102Z,97348.13
2018-04-24T14:28:25.892Z,97349.93
2018-04-24T14:30:53.817Z,97333.76
2018-04-24T14:33:22.716Z,97338.91
2018-04-24T14:35:50.374Z,97331.91
2018-04-24T14:38:18.106Z,97330.55
2018-04-24T14:40:45.762Z,97327.63
2018-04-24T14:43:13.496Z,97325.86
2018-04-24T14:45:41.716Z,97327.02
2018-04-24T14:48:09.457Z,97321.75
2018-04-24T14:50:38.625Z,97315.66
2018-04-24T14:53:06.379Z,97312.23
2018-04-24T14:55:34.071Z,97303.19
2018-04-24T14:58:01.757Z,97306.12
2018-04-24T15:00:29.560Z,97304.30
2018-04-24T15:02:57.194Z,97297.28
2018-04-24T15:05:24.799Z,97295.16
2018-04-24T15:07:52.758Z,97301.59
2018-04-24T15:10:20.468Z,97293.90
2018-04-24T15:12:48.185Z,97292.69
2018-04-24T15:15:15.775Z,97287.34
2018-04-24T15:17:43.308Z,97287.25
2018-04-24T15:20:10.920Z,97284.09
2018-04-24T15:22:38.645Z,97283.68
2018-04-24T15:25:06.414Z,97274.41
2018-04-24T15:27:34.200Z,97274.43
2018-04-24T15:30:02.560Z,97283.16
2018-04-24T15:32:30.559Z,97271.03
2018-04-24T15:34:58.273Z,97265.55
2018-04-24T15:37:26.073Z,97266.27
2018-04-24T15:39:53.843Z,97264.05
2018-04-24T15:42:21.457Z,97256.71
2018-04-24T15:44:49.199Z,97259.92
2018-04-24T15:47:16.915Z,97252.29
2018-04-24T15:49:44.607Z,97252.93
2018-04-24T15:52:12.423Z,97247.88
2018-04-24T15:54:40.309Z,97244.59
2018-04-24T15:57:08.060Z,97250.45
2018-04-24T15:59:35.978Z,97251.28
2018-04-24T16:02:03.724Z,97244.16
2018-04-24T16:04:31.340Z,97240.20
2018-04-24T16:06:59.193Z,97243.98
2018-04-24T16:09:26.835Z,97241.19
2018-04-24T16:11:54.508Z,97237.33
2018-04-24T16:14:22.213Z,97241.52
2018-04-24T16:16:49.827Z,97235.03
2018-04-24T16:19:17.416Z,97225.97
2018-04-24T16:21:45.203Z,97232.57
2018-04-24T16:24:12.894Z,97224.68
2018-04-24T16:26:40.519Z,97222.25
2018-04-24T16:29:08.424Z,97212.55
2018-04-24T16:31:36.131Z,97215.90
2018-04-24T16:34:03.905Z,97213.44
2018-04-24T16:36:32.688Z,97213.34
2018-04-24T16:39:00.402Z,97211.22
2018-04-24T16:41:28.151Z,97205.25
2018-04-24T16:43:56.028Z,97211.42
2018-04-24T16:46:23.771Z,97211.20
2018-04-24T16:48:51.523Z,97207.09
2018-04-24T16:51:19.302Z,97213.26
2018-04-24T16:53:47.007Z,97215.49
2018-04-24T16:56:14.837Z,97215.41
2018-04-24T16:58:42.840Z,97210.61
2018-04-24T17:01:10.554Z,97208.14
2018-04-24T17:03:38.290Z,97207.07
2018-04-24T17:06:06.660Z,97207.48
2018-04-24T17:08:34.538Z,97207.60
2018-04-24T17:11:02.257Z,97210.92
2018-04-24T17:13:31.160Z,97209.75
2018-04-24T17:15:58.909Z,97211.83
2018-04-24T17:18:26.596Z,97204.77
2018-04-24T17:20:54.407Z,97200.06
2018-04-24T17:23:22.379Z,97205.80
2018-04-24T17:25:50.107Z,97207.20
2018-04-24T17:28:17.873Z,97207.20
2018-04-24T17:30:46.324Z,97212.13
2018-04-24T17:33:14.051Z,97209.08
2018-04-24T17:35:42.081Z,97204.13
2018-04-24T17:38:11.029Z,97211.13
2018-04-24T17:40:38.888Z,97210.92
2018-04-24T17:43:06.700Z,97199.88
2018-04-24T17:45:34.338Z,97199.13
2018-04-24T17:48:02.069Z,97198.16
2018-04-24T17:50:29.904Z,97196.19
2018-04-24T17:52:57.581Z,97201.62
2018-04-24T17:55:25.199Z,97200.60
2018-04-24T17:57:52.985Z,97204.17
2018-04-24T18:00:20.676Z,97200.42
2018-04-24T18:02:48.365Z,97202.17
2018-04-24T18:05:16.204Z,97200.83
2018-04-24T18:07:43.831Z,97205.22
2018-04-24T18:10:11.563Z,97209.14
2018-04-24T18:12:39.359Z,97204.17
2018-04-24T18:15:07.094Z,97202.60
2018-04-24T18:17:34.797Z,97200.47
2018-04-24T18:20:02.963Z,97199.32
2018-04-24T18:22:30.673Z,97199.81
2018-04-24T18:24:58.354Z,97202.77
2018-04-24T18:27:26.339Z,97197.23
2018-04-24T18:29:54.170Z,97203.52
2018-04-24T18:32:21.875Z,97199.84
2018-04-24T18:34:49.621Z,97204.94
2018-04-24T18:37:17.375Z,97200.02
2018-04-24T18:39:45.105Z,97199.56
2018-04-24T18:42:13.328Z,97198.52
2018-04-24T18:44:41.101Z,97202.89
2018-04-24T18:47:09.947Z,97204.55
2018-04-24T18:49:38.066Z,97208.23
2018-04-24T18:52:05.817Z,97202.45
2018-04-24T18:54:33.592Z,97207.56
2018-04-24T18:57:01.729Z,97209.80
2018-04-24T18:59:29.413Z,97210.95
2018-04-24T19:01:57.155Z,97211.55
2018-04-24T19:04:25.322Z,97209.63
2018-04-24T19:06:53.059Z,97211.13
2018-04-24T19:09:21.290Z,97203.80
2018-04-24T19:11:49.153Z,97213.95
2018-04-24T19:14:22.431Z,97208.88
2018-04-24T19:16:50.345Z,97210.94
2018-04-24T19:19:23.849Z,97206.94
2018-04-24T19:21:51.780Z,97210.96
2018-04-24T19:24:24.934Z,97209.39
2018-04-24T19:26:52.821Z,97208.48
2018-04-24T19:29:20.576Z,97208.96
2018-04-24T19:31:54.177Z,97205.29
2018-04-24T19:34:21.962Z,97205.22
2018-04-24T19:36:49.712Z,97203.59
2018-04-24T19:39:23.586Z,97205.21
2018-04-24T19:41:51.412Z,97200.31
2018-04-24T19:44:20.067Z,97199.00
2018-04-24T19:46:49.349Z,97200.73
2018-04-24T19:49:22.588Z,97201.95
2018-04-24T19:51:50.490Z,97207.34
2018-04-24T19:54:18.277Z,97204.33
2018-04-24T19:56:46.129Z,97204.61
2018-04-24T19:59:14.439Z,97207.52
2018-04-24T20:01:42.198Z,97205.95
2018-04-24T20:04:10.045Z,97208.44
2018-04-24T20:06:37.937Z,97206.66
2018-04-24T20:09:07.520Z,97206.00
2018-04-24T20:11:35.279Z,97202.28
2018-04-24T20:14:03.325Z,97205.30
2018-04-24T20:16:31.930Z,97203.53
2018-04-24T20:19:00.073Z,97201.30
2018-04-24T20:21:27.874Z,97197.91
2018-04-24T20:23:55.670Z,97196.17
2018-04-24T20:26:23.960Z,97197.55
2018-04-24T20:28:51.930Z,97195.92
2018-04-24T20:31:19.665Z,97194.84
2018-04-24T20:33:48.372Z,97189.51
2018-04-24T20:36:16.160Z,97193.23
2018-04-24T20:38:43.970Z,97190.94
2018-04-24T20:41:11.725Z,97188.41
2018-04-24T20:43:39.735Z,97190.17
2018-04-24T20:46:07.487Z,97185.55
2018-04-24T20:48:35.225Z,97187.16
2018-04-24T20:51:03.417Z,97188.27
2018-04-24T20:53:31.383Z,97184.11
2018-04-24T20:55:59.135Z,97180.46
2018-04-24T20:58:27.162Z,97180.50
2018-04-24T21:00:55.834Z,97179.80
2018-04-24T21:03:23.792Z,97177.01
2018-04-24T21:05:51.586Z,97176.47
2018-04-24T21:08:19.308Z,97176.52
2018-04-24T21:10:47.104Z,97180.20
2018-04-24T21:13:14.916Z,97178.38
2018-04-24T21:15:42.640Z,97178.83
2018-04-24T21:18:10.344Z,97176.31
2018-04-24T21:20:38.080Z,97174.47
2018-04-24T21:23:05.929Z,97173.94
2018-04-24T21:25:34.569Z,97168.11
2018-04-24T21:28:03.569Z,97174.05
2018-04-24T21:30:32.207Z,97169.91
2018-04-24T21:32:59.927Z,97165.93
2018-04-24T21:35:27.688Z,97168.11
2018-04-24T21:37:55.233Z,97171.95
2018-04-24T21:40:23.716Z,97162.00
2018-04-24T21:42:51.422Z,97157.39
2018-04-24T21:45:19.812Z,97159.58
2018-04-24T21:47:47.388Z,97167.94
2018-04-24T21:50:14.956Z,97161.06
2018-04-24T21:52:42.528Z,97157.05
2018-04-24T21:55:10.053Z,97155.02
2018-04-24T21:57:37.792Z,97157.16
2018-04-24T22:00:05.832Z,97151.05
2018-04-24T22:02:33.392Z,97150.25
2018-04-24T22:05:00.945Z,97148.73
2018-04-24T22:07:28.465Z,97145.30
2018-04-24T22:09:55.993Z,97144.98
2018-04-24T22:12:24.041Z,97139.51
2018-04-24T22:14:51.602Z,97141.75
2018-04-24T22:17:19.599Z,97133.65
2018-04-24T22:19:47.160Z,97134.81
2018-04-24T22:22:16.379Z,97138.92
2018-04-24T22:24:43.976Z,97133.79
2018-04-24T22:27:11.961Z,97133.48
2018-04-24T22:29:40.419Z,97126.63
2018-04-24T22:32:07.960Z,97126.45
2018-04-24T22:34:36.837Z,97127.13
2018-04-24T22:37:04.411Z,97129.05
2018-04-24T22:39:31.957Z,97130.28
2018-04-24T22:41:59.792Z,97131.74
2018-04-24T22:44:27.320Z,97123.36
2018-04-24T22:46:54.847Z,97124.05
2018-04-24T22:49:22.700Z,97128.25
2018-04-24T22:51:50.225Z,97125.19
2018-04-24T22:54:17.761Z,97130.20
2018-04-24T22:56:45.340Z,97126.83
2018-04-24T22:59:12.900Z,97128.94
2018-04-24T23:01:40.423Z,97130.58
2018-04-24T23:04:08.008Z,97129.52
2018-04-24T23:06:35.533Z,97126.13
2018-04-24T23:09:03.068Z,97122.98
2018-04-24T23:11:42.457Z,97123.52
2018-04-24T23:14:21.516Z,97121.87
2018-04-24T23:17:00.913Z,97124.48
2018-04-24T23:19:40.084Z,97127.64
2018-04-24T23:22:07.417Z,97117.58
2018-04-24T23:24:34.940Z,97126.11
2018-04-24T23:27:02.460Z,97120.69
2018-04-24T23:29:30.263Z,97115.06
2018-04-24T23:31:57.789Z,97112.71
2018-04-24T23:34:26.180Z,97116.50
2018-04-24T23:36:53.741Z,97104.85
2018-04-24T23:39:21.270Z,97111.63
2018-04-24T23:41:48.817Z,97106.73
2018-04-24T23:44:16.548Z,97104.98
2018-04-24T23:46:44.069Z,97104.92
2018-04-24T23:49:11.613Z,97099.09
2018-04-24T23:51:39.249Z,97095.97
2018-04-24T23:54:06.767Z,97099.56
2018-04-24T23:56:35.112Z,97097.47
2018-04-24T23:59:02.905Z,97091.08
